sensor_id;sensor_type;location;lat;lon;timestamp;temperature;humidity
18460;DHT22;9359;50.932;6.924;2023-11-19T00:00:42;22.80;99.90
18460;DHT22;9359;50.932;6.924;2023-11-19T00:03:11;22.80;99.90
18460;DHT22;9359;50.932;6.924;2023-11-19T00:05:40;22.80;99.90
18460;DHT22;9359;50.932;6.924;2023-11-19T00:08:08;22.80;99.90
18460;DHT22;9359;50.932;6.924;2023-11-19T00:10:40;22.80;99.90
18460;DHT22;9359;50.932;6.924;2023-11-19T00:13:09;22.80;99.90
18460;DHT22;9359;50.932;6.924;2023-11-19T00:15:38;22.80;99.90
18460;DHT22;9359;50.932;6.924;2023-11-19T00:18:06;22.80;99.90
18460;DHT22;9359;50.932;6.924;2023-11-19T00:20:35;22.80;99.90
18460;DHT22;9359;50.932;6.924;2023-11-19T00:23:04;22.80;99.90
18460;DHT22;9359;50.932;6.924;2023-11-19T00:25:32;22.80;99.90
18460;DHT22;9359;50.932;6.924;2023-11-19T00:28:03;22.80;99.90
18460;DHT22;9359;50.932;6.924;2023-11-19T00:30:32;22.80;99.90
18460;DHT22;9359;50.932;6.924;2023-11-19T00:33:00;22.80;99.90
18460;DHT22;9359;50.932;6.924;2023-11-19T00:35:30;22.80;99.90
18460;DHT22;9359;50.932;6.924;2023-11-19T00:37:59;22.80;99.90
18460;DHT22;9359;50.932;6.924;2023-11-19T00:40:29;22.80;99.90
18460;DHT22;9359;50.932;6.924;2023-11-19T00:42:58;22.80;99.90
18460;DHT22;9359;50.932;6.924;2023-11-19T00:45:28;22.80;99.90
18460;DHT22;9359;50.932;6.924;2023-11-19T00:47:57;22.80;99.90
18460;DHT22;9359;50.932;6.924;2023-11-19T00:50:27;22.80;99.90
18460;DHT22;9359;50.932;6.924;2023-11-19T00:52:57;22.80;99.90
18460;DHT22;9359;50.932;6.924;2023-11-19T00:55:27;22.80;99.90
18460;DHT22;9359;50.932;6.924;2023-11-19T00:57:55;22.80;99.90
18460;DHT22;9359;50.932;6.924;2023-11-19T01:00:24;22.80;99.90
18460;DHT22;9359;50.932;6.924;2023-11-19T01:02:55;22.80;99.90
18460;DHT22;9359;50.932;6.924;2023-11-19T01:05:24;22.80;99.90
18460;DHT22;9359;50.932;6.924;2023-11-19T01:07:53;22.00;99.90
18460;DHT22;9359;50.932;6.924;2023-11-19T01:10:21;22.80;99.90
18460;DHT22;9359;50.932;6.924;2023-11-19T01:12:51;22.80;99.90
18460;DHT22;9359;50.932;6.924;2023-11-19T01:15:20;22.80;99.90
18460;DHT22;9359;50.932;6.924;2023-11-19T01:17:49;22.80;99.90
18460;DHT22;9359;50.932;6.924;2023-11-19T01:20:20;22.80;99.90
18460;DHT22;9359;50.932;6.924;2023-11-19T01:22:49;22.80;99.90
18460;DHT22;9359;50.932;6.924;2023-11-19T01:25:18;22.80;99.90
18460;DHT22;9359;50.932;6.924;2023-11-19T01:27:47;22.80;99.90
18460;DHT22;9359;50.932;6.924;2023-11-19T01:30:16;22.80;99.90
18460;DHT22;9359;50.932;6.924;2023-11-19T01:32:46;22.80;99.90
18460;DHT22;9359;50.932;6.924;2023-11-19T01:35:15;22.80;99.90
18460;DHT22;9359;50.932;6.924;2023-11-19T01:37:45;22.80;99.90
18460;DHT22;9359;50.932;6.924;2023-11-19T01:40:14;22.80;99.90
18460;DHT22;9359;50.932;6.924;2023-11-19T01:42:48;22.80;99.90
18460;DHT22;9359;50.932;6.924;2023-11-19T01:45:27;22.80;99.90
18460;DHT22;9359;50.932;6.924;2023-11-19T01:47:57;22.80;99.90
18460;DHT22;9359;50.932;6.924;2023-11-19T01:50:28;22.80;99.90
18460;DHT22;9359;50.932;6.924;2023-11-19T01:52:59;22.80;99.90
18460;DHT22;9359;50.932;6.924;2023-11-19T01:55:29;22.80;99.90
18460;DHT22;9359;50.932;6.924;2023-11-19T01:58:00;23.00;99.90
18460;DHT22;9359;50.932;6.924;2023-11-19T02:00:30;22.80;99.90
18460;DHT22;9359;50.932;6.924;2023-11-19T02:03:01;22.80;99.90
18460;DHT22;9359;50.932;6.924;2023-11-19T02:05:30;22.80;99.90
18460;DHT22;9359;50.932;6.924;2023-11-19T02:08:00;22.80;99.90
18460;DHT22;9359;50.932;6.924;2023-11-19T02:10:29;22.80;99.90
18460;DHT22;9359;50.932;6.924;2023-11-19T02:12:58;22.80;99.90
18460;DHT22;9359;50.932;6.924;2023-11-19T02:15:27;22.80;99.90
18460;DHT22;9359;50.932;6.924;2023-11-19T02:17:56;22.80;99.90
18460;DHT22;9359;50.932;6.924;2023-11-19T02:20:28;22.80;99.90
18460;DHT22;9359;50.932;6.924;2023-11-19T02:22:57;22.80;99.90
18460;DHT22;9359;50.932;6.924;2023-11-19T02:25:30;22.80;99.90
18460;DHT22;9359;50.932;6.924;2023-11-19T02:28:03;22.80;99.90
18460;DHT22;9359;50.932;6.924;2023-11-19T02:30:34;22.80;99.90
18460;DHT22;9359;50.932;6.924;2023-11-19T02:33:03;22.80;99.90
18460;DHT22;9359;50.932;6.924;2023-11-19T02:35:32;22.80;99.90
18460;DHT22;9359;50.932;6.924;2023-11-19T02:38:03;22.80;99.90
18460;DHT22;9359;50.932;6.924;2023-11-19T02:40:33;22.80;99.90
18460;DHT22;9359;50.932;6.924;2023-11-19T02:43:04;22.80;99.90
18460;DHT22;9359;50.932;6.924;2023-11-19T02:45:33;22.80;99.90
18460;DHT22;9359;50.932;6.924;2023-11-19T02:48:02;22.80;99.90
18460;DHT22;9359;50.932;6.924;2023-11-19T02:50:33;22.90;99.90
18460;DHT22;9359;50.932;6.924;2023-11-19T02:53:02;22.80;99.90
18460;DHT22;9359;50.932;6.924;2023-11-19T02:55:31;22.80;99.90
18460;DHT22;9359;50.932;6.924;2023-11-19T02:58:06;22.80;99.90
18460;DHT22;9359;50.932;6.924;2023-11-19T03:00:46;22.80;99.90
18460;DHT22;9359;50.932;6.924;2023-11-19T03:03:21;22.80;99.90
18460;DHT22;9359;50.932;6.924;2023-11-19T03:05:52;22.80;99.90
18460;DHT22;9359;50.932;6.924;2023-11-19T03:08:21;22.80;99.90
18460;DHT22;9359;50.932;6.924;2023-11-19T03:10:50;22.90;99.90
18460;DHT22;9359;50.932;6.924;2023-11-19T03:13:22;22.90;99.90
18460;DHT22;9359;50.932;6.924;2023-11-19T03:15:51;22.90;99.90
18460;DHT22;9359;50.932;6.924;2023-11-19T03:18:20;24.10;99.90
18460;DHT22;9359;50.932;6.924;2023-11-19T03:20:50;22.90;99.90
18460;DHT22;9359;50.932;6.924;2023-11-19T03:23:20;22.90;99.90
18460;DHT22;9359;50.932;6.924;2023-11-19T03:25:49;22.90;99.90
18460;DHT22;9359;50.932;6.924;2023-11-19T03:28:18;22.90;99.90
18460;DHT22;9359;50.932;6.924;2023-11-19T03:30:48;22.90;99.90
18460;DHT22;9359;50.932;6.924;2023-11-19T03:33:18;22.90;99.90
18460;DHT22;9359;50.932;6.924;2023-11-19T03:35:47;22.90;99.90
18460;DHT22;9359;50.932;6.924;2023-11-19T03:38:17;22.80;99.90
18460;DHT22;9359;50.932;6.924;2023-11-19T03:40:47;22.90;99.90
18460;DHT22;9359;50.932;6.924;2023-11-19T03:43:16;22.80;99.90
18460;DHT22;9359;50.932;6.924;2023-11-19T03:45:47;22.80;99.90
18460;DHT22;9359;50.932;6.924;2023-11-19T03:48:16;22.80;99.90
18460;DHT22;9359;50.932;6.924;2023-11-19T03:50:45;22.90;99.90
18460;DHT22;9359;50.932;6.924;2023-11-19T03:53:14;22.90;99.90
18460;DHT22;9359;50.932;6.924;2023-11-19T03:55:43;22.90;99.90
18460;DHT22;9359;50.932;6.924;2023-11-19T03:58:14;22.80;99.90
18460;DHT22;9359;50.932;6.924;2023-11-19T04:00:42;22.90;99.90
18460;DHT22;9359;50.932;6.924;2023-11-19T04:03:13;22.80;99.90
18460;DHT22;9359;50.932;6.924;2023-11-19T04:05:41;22.90;99.90
18460;DHT22;9359;50.932;6.924;2023-11-19T04:08:10;22.90;99.90
18460;DHT22;9359;50.932;6.924;2023-11-19T04:10:39;22.90;99.90
18460;DHT22;9359;50.932;6.924;2023-11-19T04:13:08;22.90;99.90
18460;DHT22;9359;50.932;6.924;2023-11-19T04:15:37;22.90;99.90
18460;DHT22;9359;50.932;6.924;2023-11-19T04:18:05;22.90;99.90
18460;DHT22;9359;50.932;6.924;2023-11-19T04:20:37;22.90;99.90
18460;DHT22;9359;50.932;6.924;2023-11-19T04:23:06;22.90;99.90
18460;DHT22;9359;50.932;6.924;2023-11-19T04:25:36;22.90;99.90
18460;DHT22;9359;50.932;6.924;2023-11-19T04:28:05;22.90;99.90
18460;DHT22;9359;50.932;6.924;2023-11-19T04:30:34;22.90;99.90
18460;DHT22;9359;50.932;6.924;2023-11-19T04:33:04;22.90;99.90
18460;DHT22;9359;50.932;6.924;2023-11-19T04:35:32;22.90;99.90
18460;DHT22;9359;50.932;6.924;2023-11-19T04:38:03;22.90;99.90
18460;DHT22;9359;50.932;6.924;2023-11-19T04:40:32;22.90;99.90
18460;DHT22;9359;50.932;6.924;2023-11-19T04:43:01;22.90;99.90
18460;DHT22;9359;50.932;6.924;2023-11-19T04:45:30;22.90;99.90
18460;DHT22;9359;50.932;6.924;2023-11-19T04:47:59;22.80;99.90
18460;DHT22;9359;50.932;6.924;2023-11-19T04:50:28;22.80;99.90
18460;DHT22;9359;50.932;6.924;2023-11-19T04:52:57;22.80;99.90
18460;DHT22;9359;50.932;6.924;2023-11-19T04:55:28;22.80;99.90
18460;DHT22;9359;50.932;6.924;2023-11-19T04:57:57;22.80;99.90
18460;DHT22;9359;50.932;6.924;2023-11-19T05:00:26;22.80;99.90
18460;DHT22;9359;50.932;6.924;2023-11-19T05:02:54;22.80;99.90
18460;DHT22;9359;50.932;6.924;2023-11-19T05:05:23;22.90;99.90
18460;DHT22;9359;50.932;6.924;2023-11-19T05:07:52;23.90;99.90
18460;DHT22;9359;50.932;6.924;2023-11-19T05:10:21;22.90;99.90
18460;DHT22;9359;50.932;6.924;2023-11-19T05:12:53;22.90;99.90
18460;DHT22;9359;50.932;6.924;2023-11-19T05:15:23;22.90;99.90
18460;DHT22;9359;50.932;6.924;2023-11-19T05:17:52;22.90;99.90
18460;DHT22;9359;50.932;6.924;2023-11-19T05:20:20;22.90;99.90
18460;DHT22;9359;50.932;6.924;2023-11-19T05:22:49;22.90;99.90
18460;DHT22;9359;50.932;6.924;2023-11-19T05:25:20;22.90;99.90
18460;DHT22;9359;50.932;6.924;2023-11-19T05:27:48;22.90;99.90
18460;DHT22;9359;50.932;6.924;2023-11-19T05:30:18;23.00;99.90
18460;DHT22;9359;50.932;6.924;2023-11-19T05:32:47;23.00;99.90
18460;DHT22;9359;50.932;6.924;2023-11-19T05:35:16;23.00;99.90
18460;DHT22;9359;50.932;6.924;2023-11-19T05:37:45;23.00;99.90
18460;DHT22;9359;50.932;6.924;2023-11-19T05:40:15;23.00;99.90
18460;DHT22;9359;50.932;6.924;2023-11-19T05:42:45;23.00;99.90
18460;DHT22;9359;50.932;6.924;2023-11-19T05:45:14;23.00;99.90
18460;DHT22;9359;50.932;6.924;2023-11-19T05:47:45;23.00;99.90
18460;DHT22;9359;50.932;6.924;2023-11-19T05:50:15;23.00;99.90
18460;DHT22;9359;50.932;6.924;2023-11-19T05:52:46;23.00;99.90
18460;DHT22;9359;50.932;6.924;2023-11-19T05:55:15;23.00;99.90
18460;DHT22;9359;50.932;6.924;2023-11-19T05:57:44;23.00;99.90
18460;DHT22;9359;50.932;6.924;2023-11-19T06:00:13;23.00;99.90
18460;DHT22;9359;50.932;6.924;2023-11-19T06:02:44;23.10;99.90
18460;DHT22;9359;50.932;6.924;2023-11-19T06:05:13;23.00;99.90
18460;DHT22;9359;50.932;6.924;2023-11-19T06:07:41;23.00;99.90
18460;DHT22;9359;50.932;6.924;2023-11-19T06:10:10;23.00;99.90
18460;DHT22;9359;50.932;6.924;2023-11-19T06:12:44;23.10;99.90
18460;DHT22;9359;50.932;6.924;2023-11-19T06:15:14;23.00;99.90
18460;DHT22;9359;50.932;6.924;2023-11-19T06:17:45;23.10;99.90
18460;DHT22;9359;50.932;6.924;2023-11-19T06:20:14;23.10;99.90
18460;DHT22;9359;50.932;6.924;2023-11-19T06:22:43;23.00;99.90
18460;DHT22;9359;50.932;6.924;2023-11-19T06:25:12;23.10;99.90
18460;DHT22;9359;50.932;6.924;2023-11-19T06:27:41;23.00;99.90
18460;DHT22;9359;50.932;6.924;2023-11-19T06:30:11;23.10;99.90
18460;DHT22;9359;50.932;6.924;2023-11-19T06:32:43;23.10;99.90
18460;DHT22;9359;50.932;6.924;2023-11-19T06:35:13;23.10;99.90
18460;DHT22;9359;50.932;6.924;2023-11-19T06:37:42;23.10;99.90
18460;DHT22;9359;50.932;6.924;2023-11-19T06:40:11;23.10;99.90
18460;DHT22;9359;50.932;6.924;2023-11-19T06:42:42;23.10;99.90
18460;DHT22;9359;50.932;6.924;2023-11-19T06:45:11;23.10;99.90
18460;DHT22;9359;50.932;6.924;2023-11-19T06:47:39;23.10;99.90
18460;DHT22;9359;50.932;6.924;2023-11-19T06:50:09;23.10;99.90
18460;DHT22;9359;50.932;6.924;2023-11-19T06:52:40;23.10;99.90
18460;DHT22;9359;50.932;6.924;2023-11-19T06:55:09;23.10;99.90
18460;DHT22;9359;50.932;6.924;2023-11-19T06:57:38;23.10;99.90
18460;DHT22;9359;50.932;6.924;2023-11-19T07:00:07;23.10;99.90
18460;DHT22;9359;50.932;6.924;2023-11-19T07:02:38;23.10;99.90
18460;DHT22;9359;50.932;6.924;2023-11-19T07:05:07;23.10;99.90
18460;DHT22;9359;50.932;6.924;2023-11-19T07:07:36;23.10;99.90
18460;DHT22;9359;50.932;6.924;2023-11-19T07:10:07;23.10;99.90
18460;DHT22;9359;50.932;6.924;2023-11-19T07:12:37;23.10;99.90
18460;DHT22;9359;50.932;6.924;2023-11-19T07:15:06;23.00;99.90
18460;DHT22;9359;50.932;6.924;2023-11-19T07:17:35;23.00;99.90
18460;DHT22;9359;50.932;6.924;2023-11-19T07:20:05;23.00;99.90
18460;DHT22;9359;50.932;6.924;2023-11-19T07:22:35;22.90;99.90
18460;DHT22;9359;50.932;6.924;2023-11-19T07:25:07;23.00;99.90
18460;DHT22;9359;50.932;6.924;2023-11-19T07:27:36;22.90;99.90
18460;DHT22;9359;50.932;6.924;2023-11-19T07:30:06;23.00;99.90
18460;DHT22;9359;50.932;6.924;2023-11-19T07:32:35;23.00;99.90
18460;DHT22;9359;50.932;6.924;2023-11-19T07:35:06;23.00;99.90
18460;DHT22;9359;50.932;6.924;2023-11-19T07:37:35;23.00;99.90
18460;DHT22;9359;50.932;6.924;2023-11-19T07:40:04;23.10;99.90
18460;DHT22;9359;50.932;6.924;2023-11-19T07:42:34;23.10;99.90
18460;DHT22;9359;50.932;6.924;2023-11-19T07:45:05;23.10;99.90
18460;DHT22;9359;50.932;6.924;2023-11-19T07:47:34;23.10;99.90
18460;DHT22;9359;50.932;6.924;2023-11-19T07:50:06;23.10;99.90
18460;DHT22;9359;50.932;6.924;2023-11-19T07:52:34;23.10;99.90
18460;DHT22;9359;50.932;6.924;2023-11-19T07:55:04;23.10;99.90
18460;DHT22;9359;50.932;6.924;2023-11-19T07:57:34;23.00;99.90
18460;DHT22;9359;50.932;6.924;2023-11-19T08:00:04;23.00;99.90
18460;DHT22;9359;50.932;6.924;2023-11-19T08:02:33;23.00;99.90
18460;DHT22;9359;50.932;6.924;2023-11-19T08:05:02;23.00;99.90
18460;DHT22;9359;50.932;6.924;2023-11-19T08:07:31;23.00;99.90
18460;DHT22;9359;50.932;6.924;2023-11-19T08:09:59;23.10;99.90
18460;DHT22;9359;50.932;6.924;2023-11-19T08:12:28;23.10;99.90
18460;DHT22;9359;50.932;6.924;2023-11-19T08:14:59;23.10;99.90
18460;DHT22;9359;50.932;6.924;2023-11-19T08:17:28;23.10;99.90
18460;DHT22;9359;50.932;6.924;2023-11-19T08:19:56;23.20;99.90
18460;DHT22;9359;50.932;6.924;2023-11-19T08:22:26;23.20;99.90
18460;DHT22;9359;50.932;6.924;2023-11-19T08:24:55;23.20;99.90
18460;DHT22;9359;50.932;6.924;2023-11-19T08:27:24;23.10;99.90
18460;DHT22;9359;50.932;6.924;2023-11-19T08:29:54;23.10;99.90
18460;DHT22;9359;50.932;6.924;2023-11-19T08:32:26;23.10;99.90
18460;DHT22;9359;50.932;6.924;2023-11-19T08:34:55;23.10;99.90
18460;DHT22;9359;50.932;6.924;2023-11-19T08:37:24;23.10;99.90
18460;DHT22;9359;50.932;6.924;2023-11-19T08:39:53;23.10;99.90
18460;DHT22;9359;50.932;6.924;2023-11-19T08:42:22;23.10;99.90
18460;DHT22;9359;50.932;6.924;2023-11-19T08:44:51;23.10;99.90
18460;DHT22;9359;50.932;6.924;2023-11-19T08:47:21;23.10;99.90
18460;DHT22;9359;50.932;6.924;2023-11-19T08:49:58;23.20;99.90
18460;DHT22;9359;50.932;6.924;2023-11-19T08:52:26;23.20;99.90
18460;DHT22;9359;50.932;6.924;2023-11-19T08:54:55;23.20;99.90
18460;DHT22;9359;50.932;6.924;2023-11-19T08:57:24;23.20;99.90
18460;DHT22;9359;50.932;6.924;2023-11-19T08:59:53;23.20;99.90
18460;DHT22;9359;50.932;6.924;2023-11-19T09:02:21;23.10;99.90
18460;DHT22;9359;50.932;6.924;2023-11-19T09:04:51;23.10;99.90
18460;DHT22;9359;50.932;6.924;2023-11-19T09:07:21;23.10;99.90
18460;DHT22;9359;50.932;6.924;2023-11-19T09:09:50;23.10;99.90
18460;DHT22;9359;50.932;6.924;2023-11-19T09:12:19;23.10;99.90
18460;DHT22;9359;50.932;6.924;2023-11-19T09:14:48;23.20;99.90
18460;DHT22;9359;50.932;6.924;2023-11-19T09:17:18;23.20;99.90
18460;DHT22;9359;50.932;6.924;2023-11-19T09:19:47;23.20;99.90
18460;DHT22;9359;50.932;6.924;2023-11-19T09:22:16;23.20;99.90
18460;DHT22;9359;50.932;6.924;2023-11-19T09:24:46;23.20;99.90
18460;DHT22;9359;50.932;6.924;2023-11-19T09:27:15;23.20;99.90
18460;DHT22;9359;50.932;6.924;2023-11-19T09:29:43;23.20;99.90
18460;DHT22;9359;50.932;6.924;2023-11-19T09:32:14;23.20;99.90
18460;DHT22;9359;50.932;6.924;2023-11-19T09:34:42;23.20;99.90
18460;DHT22;9359;50.932;6.924;2023-11-19T09:37:11;23.20;99.90
18460;DHT22;9359;50.932;6.924;2023-11-19T09:39:40;23.10;99.90
18460;DHT22;9359;50.932;6.924;2023-11-19T09:42:12;23.10;99.90
18460;DHT22;9359;50.932;6.924;2023-11-19T09:44:43;23.10;99.90
18460;DHT22;9359;50.932;6.924;2023-11-19T09:47:12;23.10;99.90
18460;DHT22;9359;50.932;6.924;2023-11-19T09:49:42;23.10;99.90
18460;DHT22;9359;50.932;6.924;2023-11-19T09:52:12;23.20;99.90
18460;DHT22;9359;50.932;6.924;2023-11-19T09:54:42;23.20;99.90
18460;DHT22;9359;50.932;6.924;2023-11-19T09:57:15;23.30;99.90
18460;DHT22;9359;50.932;6.924;2023-11-19T09:59:45;23.40;99.90
18460;DHT22;9359;50.932;6.924;2023-11-19T10:02:16;23.50;99.90
18460;DHT22;9359;50.932;6.924;2023-11-19T10:04:46;23.60;99.90
18460;DHT22;9359;50.932;6.924;2023-11-19T10:07:15;23.60;99.90
18460;DHT22;9359;50.932;6.924;2023-11-19T10:09:44;23.70;99.90
18460;DHT22;9359;50.932;6.924;2023-11-19T10:12:15;23.80;99.90
18460;DHT22;9359;50.932;6.924;2023-11-19T10:14:44;23.90;99.90
18460;DHT22;9359;50.932;6.924;2023-11-19T10:17:14;23.90;99.90
18460;DHT22;9359;50.932;6.924;2023-11-19T10:19:42;23.90;99.90
18460;DHT22;9359;50.932;6.924;2023-11-19T10:22:12;24.00;99.90
18460;DHT22;9359;50.932;6.924;2023-11-19T10:24:43;24.00;99.90
18460;DHT22;9359;50.932;6.924;2023-11-19T10:27:14;24.00;99.90
18460;DHT22;9359;50.932;6.924;2023-11-19T10:29:45;23.90;99.90
18460;DHT22;9359;50.932;6.924;2023-11-19T10:32:15;23.90;99.90
18460;DHT22;9359;50.932;6.924;2023-11-19T10:34:43;23.90;99.90
18460;DHT22;9359;50.932;6.924;2023-11-19T10:37:27;23.80;99.90
18460;DHT22;9359;50.932;6.924;2023-11-19T10:40:02;23.80;99.90
18460;DHT22;9359;50.932;6.924;2023-11-19T10:42:33;23.70;99.90
18460;DHT22;9359;50.932;6.924;2023-11-19T10:45:03;23.70;99.90
18460;DHT22;9359;50.932;6.924;2023-11-19T10:47:32;23.60;99.90
18460;DHT22;9359;50.932;6.924;2023-11-19T10:50:02;23.60;99.90
18460;DHT22;9359;50.932;6.924;2023-11-19T10:52:31;23.60;99.90
18460;DHT22;9359;50.932;6.924;2023-11-19T10:55:01;23.50;99.90
18460;DHT22;9359;50.932;6.924;2023-11-19T10:57:36;23.50;99.90
18460;DHT22;9359;50.932;6.924;2023-11-19T11:00:09;23.50;99.90
18460;DHT22;9359;50.932;6.924;2023-11-19T11:02:41;23.40;99.90
18460;DHT22;9359;50.932;6.924;2023-11-19T11:05:13;23.40;99.90
18460;DHT22;9359;50.932;6.924;2023-11-19T11:07:44;23.40;99.90
18460;DHT22;9359;50.932;6.924;2023-11-19T11:10:13;23.40;99.90
18460;DHT22;9359;50.932;6.924;2023-11-19T11:12:44;23.40;99.90
18460;DHT22;9359;50.932;6.924;2023-11-19T11:15:19;23.40;99.90
18460;DHT22;9359;50.932;6.924;2023-11-19T11:17:48;23.30;99.90
18460;DHT22;9359;50.932;6.924;2023-11-19T11:20:19;23.30;99.90
18460;DHT22;9359;50.932;6.924;2023-11-19T11:23:02;23.30;99.90
18460;DHT22;9359;50.932;6.924;2023-11-19T11:25:39;23.20;99.90
18460;DHT22;9359;50.932;6.924;2023-11-19T11:28:26;23.30;99.90
18460;DHT22;9359;50.932;6.924;2023-11-19T11:31:09;23.30;99.90
18460;DHT22;9359;50.932;6.924;2023-11-19T11:34:06;23.20;99.90
18460;DHT22;9359;50.932;6.924;2023-11-19T11:36:45;23.20;99.90
18460;DHT22;9359;50.932;6.924;2023-11-19T11:39:22;23.20;99.90
18460;DHT22;9359;50.932;6.924;2023-11-19T11:45:18;23.20;99.90
18460;DHT22;9359;50.932;6.924;2023-11-19T11:50:56;23.20;99.90
18460;DHT22;9359;50.932;6.924;2023-11-19T11:53:25;23.20;99.90
18460;DHT22;9359;50.932;6.924;2023-11-19T11:55:55;23.10;99.90
18460;DHT22;9359;50.932;6.924;2023-11-19T11:58:30;23.10;99.90
18460;DHT22;9359;50.932;6.924;2023-11-19T12:01:02;23.10;99.90
18460;DHT22;9359;50.932;6.924;2023-11-19T12:03:32;23.10;99.90
18460;DHT22;9359;50.932;6.924;2023-11-19T12:06:02;23.10;99.90
18460;DHT22;9359;50.932;6.924;2023-11-19T12:08:31;23.10;99.90
18460;DHT22;9359;50.932;6.924;2023-11-19T12:11:03;23.10;99.90
18460;DHT22;9359;50.932;6.924;2023-11-19T12:13:52;23.10;99.90
18460;DHT22;9359;50.932;6.924;2023-11-19T12:16:24;23.10;99.90
18460;DHT22;9359;50.932;6.924;2023-11-19T12:18:54;23.10;99.90
18460;DHT22;9359;50.932;6.924;2023-11-19T12:21:30;23.00;99.90
18460;DHT22;9359;50.932;6.924;2023-11-19T12:24:00;23.10;99.90
18460;DHT22;9359;50.932;6.924;2023-11-19T12:26:40;23.10;99.90
18460;DHT22;9359;50.932;6.924;2023-11-19T12:29:09;23.00;99.90
18460;DHT22;9359;50.932;6.924;2023-11-19T12:31:44;23.00;99.90
18460;DHT22;9359;50.932;6.924;2023-11-19T12:34:13;23.00;99.90
18460;DHT22;9359;50.932;6.924;2023-11-19T12:36:42;23.00;99.90
18460;DHT22;9359;50.932;6.924;2023-11-19T12:39:11;23.00;99.90
18460;DHT22;9359;50.932;6.924;2023-11-19T12:41:55;23.00;99.90
18460;DHT22;9359;50.932;6.924;2023-11-19T12:44:25;23.00;99.90
18460;DHT22;9359;50.932;6.924;2023-11-19T12:47:19;23.00;99.90
18460;DHT22;9359;50.932;6.924;2023-11-19T12:49:56;23.00;99.90
18460;DHT22;9359;50.932;6.924;2023-11-19T12:52:24;23.00;99.90
18460;DHT22;9359;50.932;6.924;2023-11-19T12:54:54;23.00;99.90
18460;DHT22;9359;50.932;6.924;2023-11-19T12:57:40;23.00;99.90
18460;DHT22;9359;50.932;6.924;2023-11-19T13:00:19;23.00;99.90
18460;DHT22;9359;50.932;6.924;2023-11-19T13:02:52;23.00;99.90
18460;DHT22;9359;50.932;6.924;2023-11-19T13:05:25;23.00;99.90
18460;DHT22;9359;50.932;6.924;2023-11-19T13:08:04;23.00;99.90
18460;DHT22;9359;50.932;6.924;2023-11-19T13:10:33;22.90;99.90
18460;DHT22;9359;50.932;6.924;2023-11-19T13:13:03;23.00;99.90
18460;DHT22;9359;50.932;6.924;2023-11-19T13:15:32;22.90;99.90
18460;DHT22;9359;50.932;6.924;2023-11-19T13:18:04;22.90;99.90
18460;DHT22;9359;50.932;6.924;2023-11-19T13:20:33;22.90;99.90
18460;DHT22;9359;50.932;6.924;2023-11-19T13:23:03;22.90;99.90
18460;DHT22;9359;50.932;6.924;2023-11-19T13:25:32;22.90;99.90
18460;DHT22;9359;50.932;6.924;2023-11-19T13:28:01;22.90;99.90
18460;DHT22;9359;50.932;6.924;2023-11-19T13:30:30;22.90;99.90
18460;DHT22;9359;50.932;6.924;2023-11-19T13:33:03;22.90;99.90
18460;DHT22;9359;50.932;6.924;2023-11-19T13:35:31;22.90;99.90
18460;DHT22;9359;50.932;6.924;2023-11-19T13:38:00;22.90;99.90
18460;DHT22;9359;50.932;6.924;2023-11-19T13:40:29;23.00;99.90
18460;DHT22;9359;50.932;6.924;2023-11-19T13:42:58;22.90;99.90
18460;DHT22;9359;50.932;6.924;2023-11-19T13:45:27;22.90;99.90
18460;DHT22;9359;50.932;6.924;2023-11-19T13:47:56;22.90;99.90
18460;DHT22;9359;50.932;6.924;2023-11-19T13:50:26;22.90;99.90
18460;DHT22;9359;50.932;6.924;2023-11-19T13:52:55;23.00;99.90
18460;DHT22;9359;50.932;6.924;2023-11-19T13:55:24;22.90;99.90
18460;DHT22;9359;50.932;6.924;2023-11-19T13:57:52;22.90;99.90
18460;DHT22;9359;50.932;6.924;2023-11-19T14:00:21;22.90;99.90
18460;DHT22;9359;50.932;6.924;2023-11-19T14:02:50;22.90;99.90
18460;DHT22;9359;50.932;6.924;2023-11-19T14:05:21;22.90;99.90
18460;DHT22;9359;50.932;6.924;2023-11-19T14:07:52;22.90;99.90
18460;DHT22;9359;50.932;6.924;2023-11-19T14:10:23;22.90;99.90
18460;DHT22;9359;50.932;6.924;2023-11-19T14:12:52;22.90;99.90
18460;DHT22;9359;50.932;6.924;2023-11-19T14:15:21;22.90;99.90
18460;DHT22;9359;50.932;6.924;2023-11-19T14:17:50;22.90;99.90
18460;DHT22;9359;50.932;6.924;2023-11-19T14:20:18;22.90;99.90
18460;DHT22;9359;50.932;6.924;2023-11-19T14:22:47;22.90;99.90
18460;DHT22;9359;50.932;6.924;2023-11-19T14:25:19;22.90;99.90
18460;DHT22;9359;50.932;6.924;2023-11-19T14:27:50;22.90;99.90
18460;DHT22;9359;50.932;6.924;2023-11-19T14:30:18;22.90;99.90
18460;DHT22;9359;50.932;6.924;2023-11-19T14:32:47;22.90;99.90
18460;DHT22;9359;50.932;6.924;2023-11-19T14:35:16;22.90;99.90
18460;DHT22;9359;50.932;6.924;2023-11-19T14:37:46;22.90;99.90
18460;DHT22;9359;50.932;6.924;2023-11-19T14:40:20;22.90;99.90
18460;DHT22;9359;50.932;6.924;2023-11-19T14:42:49;22.90;99.90
18460;DHT22;9359;50.932;6.924;2023-11-19T14:45:19;22.90;99.90
18460;DHT22;9359;50.932;6.924;2023-11-19T14:47:49;22.90;99.90
18460;DHT22;9359;50.932;6.924;2023-11-19T14:50:21;22.90;99.90
18460;DHT22;9359;50.932;6.924;2023-11-19T14:52:50;22.90;99.90
18460;DHT22;9359;50.932;6.924;2023-11-19T14:55:21;22.90;99.90
18460;DHT22;9359;50.932;6.924;2023-11-19T14:57:49;22.80;99.90
18460;DHT22;9359;50.932;6.924;2023-11-19T15:00:18;22.90;99.90
18460;DHT22;9359;50.932;6.924;2023-11-19T15:02:47;22.90;99.90
18460;DHT22;9359;50.932;6.924;2023-11-19T15:05:16;22.80;99.90
18460;DHT22;9359;50.932;6.924;2023-11-19T15:07:46;22.80;99.90
18460;DHT22;9359;50.932;6.924;2023-11-19T15:10:15;22.90;99.90
18460;DHT22;9359;50.932;6.924;2023-11-19T15:12:46;22.90;99.90
18460;DHT22;9359;50.932;6.924;2023-11-19T15:15:14;22.90;99.90
